sensor_id;sensor_type;location;lat;lon;timestamp;temperature;humidity
65374;SHT31;52070;53.760;9.678;2023-04-06T00:00:24;-0.22;84.81
65374;SHT31;52070;53.760;9.678;2023-04-06T00:02:53;-0.22;84.97
65374;SHT31;52070;53.760;9.678;2023-04-06T00:05:21;-0.23;85.01
65374;SHT31;52070;53.760;9.678;2023-04-06T00:07:48;-0.22;85.05
65374;SHT31;52070;53.760;9.678;2023-04-06T00:10:15;-0.19;84.97
65374;SHT31;52070;53.760;9.678;2023-04-06T00:12:42;-0.24;85.10
65374;SHT31;52070;53.760;9.678;2023-04-06T00:15:10;-0.29;85.12
65374;SHT31;52070;53.760;9.678;2023-04-06T00:17:37;-0.33;85.24
65374;SHT31;52070;53.760;9.678;2023-04-06T00:20:06;-0.34;85.15
65374;SHT31;52070;53.760;9.678;2023-04-06T00:22:34;-0.36;85.08
65374;SHT31;52070;53.760;9.678;2023-04-06T00:25:01;-0.36;84.97
65374;SHT31;52070;53.760;9.678;2023-04-06T00:27:28;-0.37;84.87
65374;SHT31;52070;53.760;9.678;2023-04-06T00:29:55;-0.37;84.89
65374;SHT31;52070;53.760;9.678;2023-04-06T00:32:22;-0.37;84.97
65374;SHT31;52070;53.760;9.678;2023-04-06T00:34:49;-0.40;84.78
65374;SHT31;52070;53.760;9.678;2023-04-06T00:37:17;-0.41;84.58
65374;SHT31;52070;53.760;9.678;2023-04-06T00:39:45;-0.47;84.32
65374;SHT31;52070;53.760;9.678;2023-04-06T00:42:12;-0.49;84.06
65374;SHT31;52070;53.760;9.678;2023-04-06T00:44:40;-0.49;84.13
65374;SHT31;52070;53.760;9.678;2023-04-06T00:47:07;-0.53;84.39
65374;SHT31;52070;53.760;9.678;2023-04-06T00:49:35;-0.56;84.56
65374;SHT31;52070;53.760;9.678;2023-04-06T00:52:02;-0.58;84.54
65374;SHT31;52070;53.760;9.678;2023-04-06T00:54:30;-0.61;84.59
65374;SHT31;52070;53.760;9.678;2023-04-06T00:56:57;-0.66;84.94
65374;SHT31;52070;53.760;9.678;2023-04-06T00:59:24;-0.67;85.28
65374;SHT31;52070;53.760;9.678;2023-04-06T01:01:51;-0.70;85.60
65374;SHT31;52070;53.760;9.678;2023-04-06T01:04:18;-0.71;85.64
65374;SHT31;52070;53.760;9.678;2023-04-06T01:06:48;-0.73;85.40
65374;SHT31;52070;53.760;9.678;2023-04-06T01:09:15;-0.76;85.09
65374;SHT31;52070;53.760;9.678;2023-04-06T01:11:43;-0.73;84.94
65374;SHT31;52070;53.760;9.678;2023-04-06T01:14:10;-0.76;85.10
65374;SHT31;52070;53.760;9.678;2023-04-06T01:16:37;-0.76;85.26
65374;SHT31;52070;53.760;9.678;2023-04-06T01:19:07;-0.77;85.12
65374;SHT31;52070;53.760;9.678;2023-04-06T01:21:35;-0.78;84.92
65374;SHT31;52070;53.760;9.678;2023-04-06T01:24:03;-0.80;84.90
65374;SHT31;52070;53.760;9.678;2023-04-06T01:26:31;-0.83;84.94
65374;SHT31;52070;53.760;9.678;2023-04-06T01:28:58;-0.83;84.94
65374;SHT31;52070;53.760;9.678;2023-04-06T01:31:26;-0.87;85.29
65374;SHT31;52070;53.760;9.678;2023-04-06T01:33:53;-0.88;85.36
65374;SHT31;52070;53.760;9.678;2023-04-06T01:36:20;-0.91;85.33
65374;SHT31;52070;53.760;9.678;2023-04-06T01:38:47;-0.95;85.13
65374;SHT31;52070;53.760;9.678;2023-04-06T01:41:15;-0.97;84.93
65374;SHT31;52070;53.760;9.678;2023-04-06T01:43:43;-0.98;84.85
65374;SHT31;52070;53.760;9.678;2023-04-06T01:46:10;-0.97;84.70
65374;SHT31;52070;53.760;9.678;2023-04-06T01:48:37;-0.99;84.31
65374;SHT31;52070;53.760;9.678;2023-04-06T01:51:04;-1.02;84.40
65374;SHT31;52070;53.760;9.678;2023-04-06T01:53:31;-1.04;84.52
65374;SHT31;52070;53.760;9.678;2023-04-06T01:55:58;-1.09;84.44
65374;SHT31;52070;53.760;9.678;2023-04-06T01:58:26;-1.09;84.17
65374;SHT31;52070;53.760;9.678;2023-04-06T02:00:53;-1.12;84.54
65374;SHT31;52070;53.760;9.678;2023-04-06T02:03:20;-1.09;84.84
65374;SHT31;52070;53.760;9.678;2023-04-06T02:05:47;-1.13;84.89
65374;SHT31;52070;53.760;9.678;2023-04-06T02:08:14;-1.13;84.84
65374;SHT31;52070;53.760;9.678;2023-04-06T02:10:41;-1.16;84.79
65374;SHT31;52070;53.760;9.678;2023-04-06T02:13:08;-1.18;84.70
65374;SHT31;52070;53.760;9.678;2023-04-06T02:15:36;-1.19;84.81
65374;SHT31;52070;53.760;9.678;2023-04-06T02:18:03;-1.21;85.03
65374;SHT31;52070;53.760;9.678;2023-04-06T02:20:30;-1.22;85.29
65374;SHT31;52070;53.760;9.678;2023-04-06T02:22:58;-1.22;85.50
65374;SHT31;52070;53.760;9.678;2023-04-06T02:25:25;-1.28;85.76
65374;SHT31;52070;53.760;9.678;2023-04-06T02:27:52;-1.29;85.94
65374;SHT31;52070;53.760;9.678;2023-04-06T02:30:19;-1.27;86.01
65374;SHT31;52070;53.760;9.678;2023-04-06T02:32:47;-1.31;85.89
65374;SHT31;52070;53.760;9.678;2023-04-06T02:35:14;-1.32;85.69
65374;SHT31;52070;53.760;9.678;2023-04-06T02:37:41;-1.35;85.81
65374;SHT31;52070;53.760;9.678;2023-04-06T02:40:09;-1.36;85.90
65374;SHT31;52070;53.760;9.678;2023-04-06T02:42:36;-1.36;85.95
65374;SHT31;52070;53.760;9.678;2023-04-06T02:45:04;-1.42;86.09
65374;SHT31;52070;53.760;9.678;2023-04-06T02:47:32;-1.42;86.20
65374;SHT31;52070;53.760;9.678;2023-04-06T02:50:00;-1.45;86.22
65374;SHT31;52070;53.760;9.678;2023-04-06T02:52:27;-1.45;86.04
65374;SHT31;52070;53.760;9.678;2023-04-06T02:54:54;-1.45;85.99
65374;SHT31;52070;53.760;9.678;2023-04-06T02:57:21;-1.45;85.74
65374;SHT31;52070;53.760;9.678;2023-04-06T02:59:48;-1.45;85.80
65374;SHT31;52070;53.760;9.678;2023-04-06T03:02:15;-1.48;86.05
65374;SHT31;52070;53.760;9.678;2023-04-06T03:04:42;-1.48;86.06
65374;SHT31;52070;53.760;9.678;2023-04-06T03:07:10;-1.52;85.91
65374;SHT31;52070;53.760;9.678;2023-04-06T03:09:37;-1.52;85.67
65374;SHT31;52070;53.760;9.678;2023-04-06T03:12:04;-1.55;85.45
65374;SHT31;52070;53.760;9.678;2023-04-06T03:14:31;-1.55;85.63
65374;SHT31;52070;53.760;9.678;2023-04-06T03:16:58;-1.56;85.75
65374;SHT31;52070;53.760;9.678;2023-04-06T03:19:26;-1.56;85.64
65374;SHT31;52070;53.760;9.678;2023-04-06T03:21:52;-1.62;85.48
65374;SHT31;52070;53.760;9.678;2023-04-06T03:24:21;-1.62;85.44
65374;SHT31;52070;53.760;9.678;2023-04-06T03:26:48;-1.62;85.44
65374;SHT31;52070;53.760;9.678;2023-04-06T03:29:15;-1.66;85.43
65374;SHT31;52070;53.760;9.678;2023-04-06T03:31:42;-1.66;85.49
65374;SHT31;52070;53.760;9.678;2023-04-06T03:34:09;-1.69;85.43
65374;SHT31;52070;53.760;9.678;2023-04-06T03:36:36;-1.69;85.60
65374;SHT31;52070;53.760;9.678;2023-04-06T03:39:03;-1.73;85.83
65374;SHT31;52070;53.760;9.678;2023-04-06T03:41:31;-1.73;85.72
65374;SHT31;52070;53.760;9.678;2023-04-06T03:43:58;-1.74;85.59
65374;SHT31;52070;53.760;9.678;2023-04-06T03:46:25;-1.77;85.70
65374;SHT31;52070;53.760;9.678;2023-04-06T03:48:52;-1.79;86.13
65374;SHT31;52070;53.760;9.678;2023-04-06T03:51:19;-1.79;86.50
65374;SHT31;52070;53.760;9.678;2023-04-06T03:53:46;-1.76;86.76
65374;SHT31;52070;53.760;9.678;2023-04-06T03:56:13;-1.77;86.85
65374;SHT31;52070;53.760;9.678;2023-04-06T03:58:41;-1.79;86.54
65374;SHT31;52070;53.760;9.678;2023-04-06T04:01:10;-1.80;86.41
65374;SHT31;52070;53.760;9.678;2023-04-06T04:03:37;-1.84;86.35
65374;SHT31;52070;53.760;9.678;2023-04-06T04:06:04;-1.84;86.14
65374;SHT31;52070;53.760;9.678;2023-04-06T04:08:31;-1.82;86.21
65374;SHT31;52070;53.760;9.678;2023-04-06T04:10:58;-1.83;86.25
65374;SHT31;52070;53.760;9.678;2023-04-06T04:13:25;-1.83;86.29
65374;SHT31;52070;53.760;9.678;2023-04-06T04:15:53;-1.86;86.43
65374;SHT31;52070;53.760;9.678;2023-04-06T04:18:20;-1.89;86.41
65374;SHT31;52070;53.760;9.678;2023-04-06T04:20:47;-1.87;86.54
65374;SHT31;52070;53.760;9.678;2023-04-06T04:23:14;-1.89;86.52
65374;SHT31;52070;53.760;9.678;2023-04-06T04:25:43;-1.90;86.38
65374;SHT31;52070;53.760;9.678;2023-04-06T04:28:10;-1.94;86.40
65374;SHT31;52070;53.760;9.678;2023-04-06T04:30:37;-1.93;86.47
65374;SHT31;52070;53.760;9.678;2023-04-06T04:33:05;-1.91;86.65
65374;SHT31;52070;53.760;9.678;2023-04-06T04:35:32;-1.93;86.75
65374;SHT31;52070;53.760;9.678;2023-04-06T04:37:59;-1.89;86.92
65374;SHT31;52070;53.760;9.678;2023-04-06T04:40:26;-1.91;87.04
65374;SHT31;52070;53.760;9.678;2023-04-06T04:42:53;-1.91;86.96
65374;SHT31;52070;53.760;9.678;2023-04-06T04:45:20;-1.93;86.98
65374;SHT31;52070;53.760;9.678;2023-04-06T04:47:46;-1.96;86.94
65374;SHT31;52070;53.760;9.678;2023-04-06T04:50:15;-2.01;86.76
65374;SHT31;52070;53.760;9.678;2023-04-06T04:52:42;-2.00;86.68
65374;SHT31;52070;53.760;9.678;2023-04-06T04:55:09;-2.03;86.97
65374;SHT31;52070;53.760;9.678;2023-04-06T04:57:36;-1.94;87.65
65374;SHT31;52070;53.760;9.678;2023-04-06T05:00:03;-1.96;88.00
65374;SHT31;52070;53.760;9.678;2023-04-06T05:02:30;-1.96;87.89
65374;SHT31;52070;53.760;9.678;2023-04-06T05:04:57;-1.96;87.69
65374;SHT31;52070;53.760;9.678;2023-04-06T05:07:25;-1.93;87.69
65374;SHT31;52070;53.760;9.678;2023-04-06T05:09:53;-1.91;87.76
65374;SHT31;52070;53.760;9.678;2023-04-06T05:12:20;-1.91;87.67
65374;SHT31;52070;53.760;9.678;2023-04-06T05:14:47;-1.90;87.73
65374;SHT31;52070;53.760;9.678;2023-04-06T05:17:14;-1.90;87.78
65374;SHT31;52070;53.760;9.678;2023-04-06T05:19:41;-1.89;87.71
65374;SHT31;52070;53.760;9.678;2023-04-06T05:22:08;-1.90;87.77
65374;SHT31;52070;53.760;9.678;2023-04-06T05:24:36;-1.87;87.88
65374;SHT31;52070;53.760;9.678;2023-04-06T05:27:05;-1.84;87.89
65374;SHT31;52070;53.760;9.678;2023-04-06T05:29:32;-1.80;88.08
65374;SHT31;52070;53.760;9.678;2023-04-06T05:31:59;-1.77;88.18
65374;SHT31;52070;53.760;9.678;2023-04-06T05:34:26;-1.73;88.29
65374;SHT31;52070;53.760;9.678;2023-04-06T05:36:53;-1.66;88.30
65374;SHT31;52070;53.760;9.678;2023-04-06T05:39:20;-1.66;88.28
65374;SHT31;52070;53.760;9.678;2023-04-06T05:41:48;-1.62;88.51
65374;SHT31;52070;53.760;9.678;2023-04-06T05:44:15;-1.53;88.51
65374;SHT31;52070;53.760;9.678;2023-04-06T05:46:42;-1.48;88.78
65374;SHT31;52070;53.760;9.678;2023-04-06T05:49:09;-1.43;88.97
65374;SHT31;52070;53.760;9.678;2023-04-06T05:51:36;-1.39;89.06
65374;SHT31;52070;53.760;9.678;2023-04-06T05:54:03;-1.31;89.11
65374;SHT31;52070;53.760;9.678;2023-04-06T05:56:30;-1.22;89.10
65374;SHT31;52070;53.760;9.678;2023-04-06T05:58:58;-1.16;89.18
65374;SHT31;52070;53.760;9.678;2023-04-06T06:01:25;-1.07;89.25
65374;SHT31;52070;53.760;9.678;2023-04-06T06:03:52;-0.98;89.33
65374;SHT31;52070;53.760;9.678;2023-04-06T06:06:19;-0.87;89.47
65374;SHT31;52070;53.760;9.678;2023-04-06T06:08:46;-0.78;89.63
65374;SHT31;52070;53.760;9.678;2023-04-06T06:11:13;-0.64;89.83
65374;SHT31;52070;53.760;9.678;2023-04-06T06:13:40;-0.46;89.88
65374;SHT31;52070;53.760;9.678;2023-04-06T06:16:09;-0.38;89.99
65374;SHT31;52070;53.760;9.678;2023-04-06T06:18:36;-0.23;89.98
65374;SHT31;52070;53.760;9.678;2023-04-06T06:21:03;-0.17;89.99
65374;SHT31;52070;53.760;9.678;2023-04-06T06:23:30;-0.07;89.95
65374;SHT31;52070;53.760;9.678;2023-04-06T06:25:57;-0.03;89.93
65374;SHT31;52070;53.760;9.678;2023-04-06T06:28:24;0.17;89.92
65374;SHT31;52070;53.760;9.678;2023-04-06T06:30:51;0.24;89.87
65374;SHT31;52070;53.760;9.678;2023-04-06T06:33:20;0.33;89.73
65374;SHT31;52070;53.760;9.678;2023-04-06T06:35:47;0.41;89.65
65374;SHT31;52070;53.760;9.678;2023-04-06T06:38:14;0.53;89.57
65374;SHT31;52070;53.760;9.678;2023-04-06T06:40:41;0.70;89.35
65374;SHT31;52070;53.760;9.678;2023-04-06T06:43:08;0.79;89.09
65374;SHT31;52070;53.760;9.678;2023-04-06T06:45:35;0.89;88.86
65374;SHT31;52070;53.760;9.678;2023-04-06T06:48:02;1.00;88.59
65374;SHT31;52070;53.760;9.678;2023-04-06T06:50:30;1.14;88.21
65374;SHT31;52070;53.760;9.678;2023-04-06T06:52:57;1.28;87.78
65374;SHT31;52070;53.760;9.678;2023-04-06T06:55:24;1.45;87.20
65374;SHT31;52070;53.760;9.678;2023-04-06T06:57:52;1.57;86.65
65374;SHT31;52070;53.760;9.678;2023-04-06T07:00:19;1.69;86.27
65374;SHT31;52070;53.760;9.678;2023-04-06T07:02:47;1.78;85.76
65374;SHT31;52070;53.760;9.678;2023-04-06T07:05:15;1.86;85.39
65374;SHT31;52070;53.760;9.678;2023-04-06T07:07:43;1.99;85.12
65374;SHT31;52070;53.760;9.678;2023-04-06T07:10:10;2.19;84.57
65374;SHT31;52070;53.760;9.678;2023-04-06T07:12:37;2.37;83.94
65374;SHT31;52070;53.760;9.678;2023-04-06T07:15:05;2.56;83.07
65374;SHT31;52070;53.760;9.678;2023-04-06T07:17:32;2.64;81.94
65374;SHT31;52070;53.760;9.678;2023-04-06T07:19:59;2.77;81.32
65374;SHT31;52070;53.760;9.678;2023-04-06T07:22:26;2.91;80.86
65374;SHT31;52070;53.760;9.678;2023-04-06T07:24:54;3.01;80.58
65374;SHT31;52070;53.760;9.678;2023-04-06T07:27:21;3.16;80.01
65374;SHT31;52070;53.760;9.678;2023-04-06T07:29:48;3.38;79.06
65374;SHT31;52070;53.760;9.678;2023-04-06T07:32:15;3.51;78.25
65374;SHT31;52070;53.760;9.678;2023-04-06T07:34:42;3.59;78.09
65374;SHT31;52070;53.760;9.678;2023-04-06T07:37:10;3.79;77.37
65374;SHT31;52070;53.760;9.678;2023-04-06T07:39:37;3.91;76.93
65374;SHT31;52070;53.760;9.678;2023-04-06T07:42:06;4.01;76.66
65374;SHT31;52070;53.760;9.678;2023-04-06T07:44:33;4.21;75.49
65374;SHT31;52070;53.760;9.678;2023-04-06T07:47:00;4.40;74.94
65374;SHT31;52070;53.760;9.678;2023-04-06T07:49:27;4.55;74.57
65374;SHT31;52070;53.760;9.678;2023-04-06T07:51:54;4.68;74.05
65374;SHT31;52070;53.760;9.678;2023-04-06T07:54:20;4.85;73.29
65374;SHT31;52070;53.760;9.678;2023-04-06T07:56:47;5.08;72.30
65374;SHT31;52070;53.760;9.678;2023-04-06T07:59:16;5.29;68.94
65374;SHT31;52070;53.760;9.678;2023-04-06T08:01:43;5.46;69.26
65374;SHT31;52070;53.760;9.678;2023-04-06T08:04:10;5.91;65.13
65374;SHT31;52070;53.760;9.678;2023-04-06T08:06:37;6.10;65.91
65374;SHT31;52070;53.760;9.678;2023-04-06T08:09:04;6.25;63.32
65374;SHT31;52070;53.760;9.678;2023-04-06T08:11:31;6.32;63.28
65374;SHT31;52070;53.760;9.678;2023-04-06T08:13:57;6.42;64.05
65374;SHT31;52070;53.760;9.678;2023-04-06T08:16:26;6.53;63.63
65374;SHT31;52070;53.760;9.678;2023-04-06T08:18:53;6.62;61.68
65374;SHT31;52070;53.760;9.678;2023-04-06T08:21:20;6.76;61.76
65374;SHT31;52070;53.760;9.678;2023-04-06T08:23:46;6.71;62.55
65374;SHT31;52070;53.760;9.678;2023-04-06T08:26:13;6.90;59.66
65374;SHT31;52070;53.760;9.678;2023-04-06T08:28:40;6.96;59.60
65374;SHT31;52070;53.760;9.678;2023-04-06T08:31:07;7.04;58.50
65374;SHT31;52070;53.760;9.678;2023-04-06T08:33:36;7.38;56.31
65374;SHT31;52070;53.760;9.678;2023-04-06T08:36:11;7.62;54.87
65374;SHT31;52070;53.760;9.678;2023-04-06T08:38:39;7.78;53.55
65374;SHT31;52070;53.760;9.678;2023-04-06T08:41:09;7.85;54.38
65374;SHT31;52070;53.760;9.678;2023-04-06T08:43:42;7.85;54.99
65374;SHT31;52070;53.760;9.678;2023-04-06T08:46:10;7.86;54.54
65374;SHT31;52070;53.760;9.678;2023-04-06T08:48:40;8.07;49.98
65374;SHT31;52070;53.760;9.678;2023-04-06T08:51:08;8.23;48.03
65374;SHT31;52070;53.760;9.678;2023-04-06T08:53:35;8.30;48.34
65374;SHT31;52070;53.760;9.678;2023-04-06T08:56:03;8.37;46.33
65374;SHT31;52070;53.760;9.678;2023-04-06T08:58:33;8.43;47.35
65374;SHT31;52070;53.760;9.678;2023-04-06T09:01:02;8.52;46.70
65374;SHT31;52070;53.760;9.678;2023-04-06T09:03:33;8.60;47.56
65374;SHT31;52070;53.760;9.678;2023-04-06T09:06:03;8.66;47.44
65374;SHT31;52070;53.760;9.678;2023-04-06T09:08:30;8.68;46.61
65374;SHT31;52070;53.760;9.678;2023-04-06T09:10:57;8.83;44.91
65374;SHT31;52070;53.760;9.678;2023-04-06T09:13:24;9.00;47.80
65374;SHT31;52070;53.760;9.678;2023-04-06T09:15:58;9.12;45.90
65374;SHT31;52070;53.760;9.678;2023-04-06T09:18:29;9.35;45.26
65374;SHT31;52070;53.760;9.678;2023-04-06T09:20:57;9.38;41.82
65374;SHT31;52070;53.760;9.678;2023-04-06T09:23:25;9.45;42.54
65374;SHT31;52070;53.760;9.678;2023-04-06T09:26:04;9.30;41.84
65374;SHT31;52070;53.760;9.678;2023-04-06T09:28:41;9.39;42.51
65374;SHT31;52070;53.760;9.678;2023-04-06T09:31:08;9.52;41.14
65374;SHT31;52070;53.760;9.678;2023-04-06T09:33:37;9.79;41.46
65374;SHT31;52070;53.760;9.678;2023-04-06T09:36:05;9.95;42.90
65374;SHT31;52070;53.760;9.678;2023-04-06T09:38:34;10.10;41.47
65374;SHT31;52070;53.760;9.678;2023-04-06T09:41:01;10.09;40.11
65374;SHT31;52070;53.760;9.678;2023-04-06T09:43:28;10.07;40.34
65374;SHT31;52070;53.760;9.678;2023-04-06T09:45:55;10.37;42.35
65374;SHT31;52070;53.760;9.678;2023-04-06T09:48:24;10.57;41.22
65374;SHT31;52070;53.760;9.678;2023-04-06T09:50:54;10.63;39.38
65374;SHT31;52070;53.760;9.678;2023-04-06T09:53:26;10.68;38.65
65374;SHT31;52070;53.760;9.678;2023-04-06T09:55:57;10.94;40.29
65374;SHT31;52070;53.760;9.678;2023-04-06T09:58:32;10.92;39.03
65374;SHT31;52070;53.760;9.678;2023-04-06T10:01:05;11.15;39.40
65374;SHT31;52070;53.760;9.678;2023-04-06T10:03:40;11.15;38.52
65374;SHT31;52070;53.760;9.678;2023-04-06T10:06:13;11.32;39.96
65374;SHT31;52070;53.760;9.678;2023-04-06T10:08:42;11.62;40.49
65374;SHT31;52070;53.760;9.678;2023-04-06T10:11:11;11.60;37.54
65374;SHT31;52070;53.760;9.678;2023-04-06T10:13:39;11.87;37.19
65374;SHT31;52070;53.760;9.678;2023-04-06T10:16:06;11.87;36.48
65374;SHT31;52070;53.760;9.678;2023-04-06T10:18:34;11.80;37.12
65374;SHT31;52070;53.760;9.678;2023-04-06T10:21:05;11.84;38.82
65374;SHT31;52070;53.760;9.678;2023-04-06T10:23:35;12.03;37.87
65374;SHT31;52070;53.760;9.678;2023-04-06T10:26:02;12.20;39.45
65374;SHT31;52070;53.760;9.678;2023-04-06T10:28:33;12.38;37.92
65374;SHT31;52070;53.760;9.678;2023-04-06T10:31:04;12.20;39.45
65374;SHT31;52070;53.760;9.678;2023-04-06T10:33:31;11.96;37.45
65374;SHT31;52070;53.760;9.678;2023-04-06T10:36:09;12.17;37.38
65374;SHT31;52070;53.760;9.678;2023-04-06T10:38:37;12.13;37.65
65374;SHT31;52070;53.760;9.678;2023-04-06T10:41:05;12.21;37.19
65374;SHT31;52070;53.760;9.678;2023-04-06T10:43:35;11.98;35.78
65374;SHT31;52070;53.760;9.678;2023-04-06T10:46:03;12.34;38.71
65374;SHT31;52070;53.760;9.678;2023-04-06T10:48:37;12.78;37.03
65374;SHT31;52070;53.760;9.678;2023-04-06T10:51:08;12.69;36.37
65374;SHT31;52070;53.760;9.678;2023-04-06T10:53:35;12.48;34.39
65374;SHT31;52070;53.760;9.678;2023-04-06T10:56:02;13.00;38.26
65374;SHT31;52070;53.760;9.678;2023-04-06T10:58:30;13.13;34.12
65374;SHT31;52070;53.760;9.678;2023-04-06T11:00:59;13.27;36.69
65374;SHT31;52070;53.760;9.678;2023-04-06T11:03:26;13.05;34.58
65374;SHT31;52070;53.760;9.678;2023-04-06T11:05:53;13.32;34.94
65374;SHT31;52070;53.760;9.678;2023-04-06T11:08:25;13.46;34.91
65374;SHT31;52070;53.760;9.678;2023-04-06T11:10:52;13.64;35.64
65374;SHT31;52070;53.760;9.678;2023-04-06T11:13:19;13.90;35.01
65374;SHT31;52070;53.760;9.678;2023-04-06T11:15:46;14.11;35.74
65374;SHT31;52070;53.760;9.678;2023-04-06T11:18:18;14.35;32.64
65374;SHT31;52070;53.760;9.678;2023-04-06T11:20:47;14.48;34.61
65374;SHT31;52070;53.760;9.678;2023-04-06T11:23:22;14.41;32.60
65374;SHT31;52070;53.760;9.678;2023-04-06T11:25:50;14.38;31.88
65374;SHT31;52070;53.760;9.678;2023-04-06T11:28:17;14.51;33.52
65374;SHT31;52070;53.760;9.678;2023-04-06T11:30:45;14.25;32.65
65374;SHT31;52070;53.760;9.678;2023-04-06T11:33:21;14.21;34.91
65374;SHT31;52070;53.760;9.678;2023-04-06T11:35:48;14.38;35.44
65374;SHT31;52070;53.760;9.678;2023-04-06T11:38:17;14.88;33.83
65374;SHT31;52070;53.760;9.678;2023-04-06T11:40:45;14.96;30.79
65374;SHT31;52070;53.760;9.678;2023-04-06T11:43:12;15.04;33.50
65374;SHT31;52070;53.760;9.678;2023-04-06T11:45:40;14.98;31.57
65374;SHT31;52070;53.760;9.678;2023-04-06T11:48:17;14.32;31.71
65374;SHT31;52070;53.760;9.678;2023-04-06T11:50:47;14.65;31.36
65374;SHT31;52070;53.760;9.678;2023-04-06T11:53:14;14.72;32.91
65374;SHT31;52070;53.760;9.678;2023-04-06T11:55:41;14.98;34.00
65374;SHT31;52070;53.760;9.678;2023-04-06T11:58:10;14.92;31.99
65374;SHT31;52070;53.760;9.678;2023-04-06T12:00:37;15.30;33.60
65374;SHT31;52070;53.760;9.678;2023-04-06T12:03:04;15.23;31.54
65374;SHT31;52070;53.760;9.678;2023-04-06T12:05:33;15.00;30.34
65374;SHT31;52070;53.760;9.678;2023-04-06T12:08:01;14.89;31.46
65374;SHT31;52070;53.760;9.678;2023-04-06T12:10:29;14.49;30.86
65374;SHT31;52070;53.760;9.678;2023-04-06T12:12:56;14.89;32.00
65374;SHT31;52070;53.760;9.678;2023-04-06T12:15:23;14.80;30.71
65374;SHT31;52070;53.760;9.678;2023-04-06T12:17:50;14.76;32.39
65374;SHT31;52070;53.760;9.678;2023-04-06T12:20:17;15.09;31.23
65374;SHT31;52070;53.760;9.678;2023-04-06T12:22:44;15.64;31.48
65374;SHT31;52070;53.760;9.678;2023-04-06T12:25:12;15.55;29.51
65374;SHT31;52070;53.760;9.678;2023-04-06T12:27:39;15.18;32.49
65374;SHT31;52070;53.760;9.678;2023-04-06T12:30:07;15.24;30.67
65374;SHT31;52070;53.760;9.678;2023-04-06T12:32:34;15.29;31.77
65374;SHT31;52070;53.760;9.678;2023-04-06T12:35:01;15.91;31.87
65374;SHT31;52070;53.760;9.678;2023-04-06T12:37:28;16.05;32.35
65374;SHT31;52070;53.760;9.678;2023-04-06T12:39:55;16.05;29.74
65374;SHT31;52070;53.760;9.678;2023-04-06T12:42:24;16.42;30.42
65374;SHT31;52070;53.760;9.678;2023-04-06T12:44:51;16.16;29.90
65374;SHT31;52070;53.760;9.678;2023-04-06T12:47:18;15.94;29.55
65374;SHT31;52070;53.760;9.678;2023-04-06T12:49:45;15.85;29.15
65374;SHT31;52070;53.760;9.678;2023-04-06T12:52:12;16.44;28.30
65374;SHT31;52070;53.760;9.678;2023-04-06T12:54:39;16.63;28.17
65374;SHT31;52070;53.760;9.678;2023-04-06T12:57:05;16.70;28.01
65374;SHT31;52070;53.760;9.678;2023-04-06T12:59:34;16.04;27.64
65374;SHT31;52070;53.760;9.678;2023-04-06T13:02:03;16.29;28.99
65374;SHT31;52070;53.760;9.678;2023-04-06T13:04:30;16.30;29.21
65374;SHT31;52070;53.760;9.678;2023-04-06T13:06:57;16.14;27.65
65374;SHT31;52070;53.760;9.678;2023-04-06T13:09:24;15.88;27.29
65374;SHT31;52070;53.760;9.678;2023-04-06T13:11:51;15.75;28.63
65374;SHT31;52070;53.760;9.678;2023-04-06T13:14:18;15.83;29.50
65374;SHT31;52070;53.760;9.678;2023-04-06T13:16:46;15.84;29.20
65374;SHT31;52070;53.760;9.678;2023-04-06T13:19:13;16.18;29.47
65374;SHT31;52070;53.760;9.678;2023-04-06T13:21:40;16.46;27.76
65374;SHT31;52070;53.760;9.678;2023-04-06T13:24:07;16.67;28.17
65374;SHT31;52070;53.760;9.678;2023-04-06T13:26:35;16.28;28.19
65374;SHT31;52070;53.760;9.678;2023-04-06T13:29:02;16.48;28.40
65374;SHT31;52070;53.760;9.678;2023-04-06T13:31:29;16.46;28.56
65374;SHT31;52070;53.760;9.678;2023-04-06T13:33:58;16.14;27.38
65374;SHT31;52070;53.760;9.678;2023-04-06T13:36:25;16.00;28.28
65374;SHT31;52070;53.760;9.678;2023-04-06T13:38:53;16.08;29.09
65374;SHT31;52070;53.760;9.678;2023-04-06T13:41:22;16.33;27.80
65374;SHT31;52070;53.760;9.678;2023-04-06T13:43:49;15.92;27.66
65374;SHT31;52070;53.760;9.678;2023-04-06T13:46:16;15.68;27.48
65374;SHT31;52070;53.760;9.678;2023-04-06T13:48:44;15.92;26.91
65374;SHT31;52070;53.760;9.678;2023-04-06T13:51:13;16.21;28.44
65374;SHT31;52070;53.760;9.678;2023-04-06T13:53:40;16.44;27.45
65374;SHT31;52070;53.760;9.678;2023-04-06T13:56:08;16.42;28.19
65374;SHT31;52070;53.760;9.678;2023-04-06T13:58:35;16.15;27.95
65374;SHT31;52070;53.760;9.678;2023-04-06T14:01:03;15.97;27.54
65374;SHT31;52070;53.760;9.678;2023-04-06T14:03:30;15.92;28.39
65374;SHT31;52070;53.760;9.678;2023-04-06T14:05:57;16.00;27.66
65374;SHT31;52070;53.760;9.678;2023-04-06T14:08:25;16.39;28.02
65374;SHT31;52070;53.760;9.678;2023-04-06T14:10:52;16.63;26.28
65374;SHT31;52070;53.760;9.678;2023-04-06T14:13:19;16.35;28.61
65374;SHT31;52070;53.760;9.678;2023-04-06T14:15:46;16.42;27.06
65374;SHT31;52070;53.760;9.678;2023-04-06T14:18:14;15.95;27.16
65374;SHT31;52070;53.760;9.678;2023-04-06T14:20:41;16.02;28.11
65374;SHT31;52070;53.760;9.678;2023-04-06T14:23:07;16.01;27.98
65374;SHT31;52070;53.760;9.678;2023-04-06T14:25:36;16.16;28.33
65374;SHT31;52070;53.760;9.678;2023-04-06T14:28:03;16.57;27.87
65374;SHT31;52070;53.760;9.678;2023-04-06T14:30:30;16.57;26.79
65374;SHT31;52070;53.760;9.678;2023-04-06T14:32:57;16.91;27.36
65374;SHT31;52070;53.760;9.678;2023-04-06T14:35:24;16.97;29.97
65374;SHT31;52070;53.760;9.678;2023-04-06T14:37:53;17.14;28.26
65374;SHT31;52070;53.760;9.678;2023-04-06T14:40:20;16.75;26.59
65374;SHT31;52070;53.760;9.678;2023-04-06T14:42:48;16.65;29.07
65374;SHT31;52070;53.760;9.678;2023-04-06T14:45:16;16.93;27.10
65374;SHT31;52070;53.760;9.678;2023-04-06T14:47:45;17.10;26.01
65374;SHT31;52070;53.760;9.678;2023-04-06T14:50:12;17.31;26.82
65374;SHT31;52070;53.760;9.678;2023-04-06T14:52:39;17.30;26.77
65374;SHT31;52070;53.760;9.678;2023-04-06T14:55:06;16.55;26.75
65374;SHT31;52070;53.760;9.678;2023-04-06T14:57:33;16.66;27.28
65374;SHT31;52070;53.760;9.678;2023-04-06T15:00:02;16.67;26.94
65374;SHT31;52070;53.760;9.678;2023-04-06T15:02:29;16.77;27.74
65374;SHT31;52070;53.760;9.678;2023-04-06T15:04:57;17.26;27.28
65374;SHT31;52070;53.760;9.678;2023-04-06T15:07:24;16.96;26.75
65374;SHT31;52070;53.760;9.678;2023-04-06T15:09:51;17.00;30.15
65374;SHT31;52070;53.760;9.678;2023-04-06T15:12:18;17.35;28.26
65374;SHT31;52070;53.760;9.678;2023-04-06T15:14:45;16.96;25.38
65374;SHT31;52070;53.760;9.678;2023-04-06T15:17:13;16.70;25.54
65374;SHT31;52070;53.760;9.678;2023-04-06T15:19:40;16.72;28.41
65374;SHT31;52070;53.760;9.678;2023-04-06T15:22:07;16.33;26.52
65374;SHT31;52070;53.760;9.678;2023-04-06T15:24:34;16.48;26.64
65374;SHT31;52070;53.760;9.678;2023-04-06T15:27:01;16.29;28.85
65374;SHT31;52070;53.760;9.678;2023-04-06T15:29:30;16.57;27.05
65374;SHT31;52070;53.760;9.678;2023-04-06T15:31:57;16.72;25.97
65374;SHT31;52070;53.760;9.678;2023-04-06T15:34:25;16.67;27.31
65374;SHT31;52070;53.760;9.678;2023-04-06T15:36:55;16.96;27.12